createdAt,value
2023-01-23T00:00:24.433Z,37.20
2023-01-23T00:02:26.402Z,37.20
2023-01-23T00:04:28.241Z,37.20
2023-01-23T00:06:30.430Z,37.30
2023-01-23T00:08:32.615Z,37.30
2023-01-23T00:10:34.354Z,37.90
2023-01-23T00:12:36.186Z,37.20
2023-01-23T00:14:37.887Z,37.20
2023-01-23T00:16:39.679Z,37.20
2023-01-23T00:18:41.594Z,37.30
2023-01-23T00:20:43.815Z,37.30
2023-01-23T00:22:45.506Z,37.30
2023-01-23T00:24:47.300Z,37.20
2023-01-23T00:26:49.171Z,37.20
2023-01-23T00:28:51.475Z,37.30
2023-01-23T00:30:53.973Z,37.30
2023-01-23T00:32:56.841Z,37.30
2023-01-23T00:35:01.161Z,37.30
2023-01-23T00:37:02.981Z,37.30
2023-01-23T00:39:05.725Z,37.30
2023-01-23T00:41:07.975Z,37.20
2023-01-23T00:43:09.710Z,37.20
2023-01-23T00:45:11.762Z,37.30
2023-01-23T00:47:13.518Z,37.30
2023-01-23T00:49:15.409Z,37.20
2023-01-23T00:51:18.953Z,37.30
2023-01-23T00:53:21.108Z,37.30
2023-01-23T00:55:22.825Z,37.30
2023-01-23T00:57:24.600Z,37.30
2023-01-23T00:59:26.329Z,37.30
2023-01-23T01:01:28.898Z,37.30
2023-01-23T01:03:30.704Z,37.30
2023-01-23T01:05:32.714Z,37.30
2023-01-23T01:07:34.478Z,37.30
2023-01-23T01:09:36.258Z,37.30
2023-01-23T01:11:38.281Z,37.20
2023-01-23T01:13:40.371Z,37.20
2023-01-23T01:15:43.746Z,37.20
2023-01-23T01:17:45.589Z,37.30
2023-01-23T01:19:47.346Z,37.30
2023-01-23T01:21:49.137Z,37.20
2023-01-23T01:23:52.366Z,37.20
2023-01-23T01:25:58.239Z,37.30
2023-01-23T01:27:59.978Z,37.20
2023-01-23T01:30:01.958Z,37.20
2023-01-23T01:32:03.801Z,37.20
2023-01-23T01:34:05.602Z,37.20
2023-01-23T01:36:11.137Z,37.20
2023-01-23T01:38:13.158Z,37.20
2023-01-23T01:40:18.088Z,37.10
2023-01-23T01:42:20.090Z,37.30
2023-01-23T01:44:23.049Z,37.20
2023-01-23T01:46:26.510Z,37.20
2023-01-23T01:48:42.861Z,37.20
2023-01-23T01:50:44.761Z,37.20
2023-01-23T01:52:46.490Z,37.20
2023-01-23T01:54:50.489Z,37.10
2023-01-23T01:56:54.922Z,37.20
2023-01-23T01:58:58.144Z,37.20
2023-01-23T02:01:00.099Z,37.10
2023-01-23T02:03:02.310Z,37.20
2023-01-23T02:05:06.267Z,37.10
2023-01-23T02:07:11.429Z,37.10
2023-01-23T02:09:18.911Z,37.10
2023-01-23T02:11:22.247Z,37.00
2023-01-23T02:13:34.959Z,37.00
2023-01-23T02:15:37.141Z,37.10
2023-01-23T02:17:39.127Z,37.10
2023-01-23T02:19:45.508Z,37.00
2023-01-23T02:21:49.709Z,37.00
2023-01-23T02:23:54.483Z,37.00
2023-01-23T02:26:05.466Z,37.10
2023-01-23T02:28:07.478Z,37.20
2023-01-23T02:30:13.244Z,37.10
2023-01-23T02:32:16.393Z,37.20
2023-01-23T02:34:18.449Z,37.00
2023-01-23T02:36:21.524Z,37.00
2023-01-23T02:38:29.537Z,37.00
2023-01-23T02:40:32.893Z,37.10
2023-01-23T02:42:35.539Z,37.10
2023-01-23T02:44:37.700Z,37.10
2023-01-23T02:46:40.053Z,37.00
2023-01-23T02:48:41.959Z,37.10
2023-01-23T02:50:43.763Z,37.00
2023-01-23T02:52:45.677Z,37.00
2023-01-23T02:54:47.803Z,37.00
2023-01-23T02:56:50.919Z,37.00
2023-01-23T02:58:55.673Z,36.90
2023-01-23T03:00:57.750Z,37.00
2023-01-23T03:03:00.105Z,37.00
2023-01-23T03:05:02.261Z,37.00
2023-01-23T03:07:04.137Z,37.00
2023-01-23T03:09:08.691Z,37.00
2023-01-23T03:11:10.548Z,37.00
2023-01-23T03:13:12.440Z,37.00
2023-01-23T03:15:14.375Z,37.00
2023-01-23T03:17:16.288Z,37.00
2023-01-23T03:19:21.878Z,37.00
2023-01-23T03:21:25.217Z,37.00
2023-01-23T03:23:27.143Z,37.00
2023-01-23T03:25:29.802Z,37.00
2023-01-23T03:27:31.911Z,36.90
2023-01-23T03:29:34.300Z,37.00
2023-01-23T03:31:36.099Z,37.00
2023-01-23T03:33:38.320Z,36.90
2023-01-23T03:35:43.142Z,37.00
2023-01-23T03:37:45.491Z,37.00
2023-01-23T03:39:47.791Z,37.00
2023-01-23T03:41:52.645Z,37.00
2023-01-23T03:43:56.112Z,37.00
2023-01-23T03:46:00.874Z,37.00
2023-01-23T03:48:03.803Z,37.00
2023-01-23T03:50:06.086Z,37.00
2023-01-23T03:52:11.640Z,37.00
2023-01-23T03:54:13.705Z,37.00
2023-01-23T03:56:15.676Z,37.00
2023-01-23T03:58:17.943Z,37.00
2023-01-23T04:00:21.218Z,37.00
2023-01-23T04:02:30.395Z,37.00
2023-01-23T04:04:32.688Z,37.00
2023-01-23T04:06:35.066Z,37.00
2023-01-23T04:08:36.851Z,37.00
2023-01-23T04:10:40.043Z,37.00
2023-01-23T04:12:48.446Z,36.90
2023-01-23T04:14:50.299Z,37.00
2023-01-23T04:16:52.428Z,36.90
2023-01-23T04:18:54.544Z,37.00
2023-01-23T04:20:57.480Z,37.00
2023-01-23T04:22:59.580Z,37.00
2023-01-23T04:25:02.983Z,37.00
2023-01-23T04:27:05.469Z,37.00
2023-01-23T04:29:08.805Z,36.90
2023-01-23T04:31:11.108Z,37.00
2023-01-23T04:33:13.055Z,37.00
2023-01-23T04:35:15.214Z,37.00
2023-01-23T04:37:18.109Z,37.10
2023-01-23T04:39:20.951Z,36.90
2023-01-23T04:41:26.533Z,37.00
2023-01-23T04:43:35.745Z,37.00
2023-01-23T04:45:44.826Z,36.90
2023-01-23T04:48:22.286Z,36.90
2023-01-23T04:50:24.468Z,37.00
2023-01-23T04:52:27.211Z,36.90
2023-01-23T04:54:32.018Z,37.10
2023-01-23T04:56:34.844Z,37.00
2023-01-23T04:58:38.760Z,37.00
2023-01-23T05:00:41.542Z,37.00
2023-01-23T05:02:45.832Z,37.00
2023-01-23T05:04:47.885Z,37.00
2023-01-23T05:06:50.028Z,37.00
2023-01-23T05:08:52.612Z,37.00
2023-01-23T05:11:03.200Z,37.00
2023-01-23T05:13:05.077Z,36.90
2023-01-23T05:15:07.518Z,36.40
2023-01-23T05:17:15.291Z,36.90
2023-01-23T05:19:21.962Z,36.90
2023-01-23T05:21:23.836Z,36.90
2023-01-23T05:23:29.341Z,36.90
2023-01-23T05:25:31.283Z,36.90
2023-01-23T05:27:34.525Z,37.00
2023-01-23T05:29:36.495Z,36.90
2023-01-23T05:31:46.018Z,36.90
2023-01-23T05:34:06.684Z,36.80
2023-01-23T05:36:10.137Z,36.90
2023-01-23T05:38:15.375Z,36.90
2023-01-23T05:40:19.338Z,37.00
2023-01-23T05:42:53.545Z,37.00
2023-01-23T05:45:30.894Z,37.00
2023-01-23T05:47:32.922Z,37.00
2023-01-23T05:49:34.966Z,37.00
2023-01-23T05:51:37.188Z,37.00
2023-01-23T05:53:39.650Z,37.00
2023-01-23T05:55:41.475Z,37.00
2023-01-23T05:57:45.639Z,37.00
2023-01-23T06:00:06.572Z,37.00
2023-01-23T06:02:23.267Z,37.10
2023-01-23T06:04:43.692Z,37.00
2023-01-23T06:07:01.200Z,37.00
2023-01-23T06:09:03.469Z,37.00
2023-01-23T06:11:05.762Z,37.10
2023-01-23T06:13:07.643Z,37.10
2023-01-23T06:15:11.028Z,37.00
2023-01-23T06:17:14.278Z,37.10
2023-01-23T06:19:16.343Z,37.00
2023-01-23T06:21:18.373Z,37.10
2023-01-23T06:23:20.291Z,37.10
2023-01-23T06:25:22.190Z,37.10
2023-01-23T06:27:24.429Z,37.00
2023-01-23T06:29:27.099Z,37.00
2023-01-23T06:31:29.203Z,37.10
2023-01-23T06:33:34.228Z,37.10
2023-01-23T06:35:36.924Z,37.00
2023-01-23T06:37:41.034Z,37.10
2023-01-23T06:39:44.497Z,37.00
2023-01-23T06:41:48.450Z,37.00
2023-01-23T06:43:55.739Z,37.00
2023-01-23T06:46:00.830Z,37.00
2023-01-23T06:48:02.885Z,37.00
2023-01-23T06:50:05.161Z,37.00
2023-01-23T06:52:11.636Z,37.10
2023-01-23T06:54:13.536Z,37.00
2023-01-23T06:56:15.376Z,37.10
2023-01-23T06:58:17.629Z,37.10
2023-01-23T07:00:20.309Z,37.00
2023-01-23T07:02:22.407Z,37.10
2023-01-23T07:04:25.669Z,37.10
2023-01-23T07:06:27.741Z,37.00
2023-01-23T07:08:29.805Z,37.00
2023-01-23T07:10:32.501Z,37.00
2023-01-23T07:12:36.769Z,36.90
2023-01-23T07:14:39.416Z,37.10
2023-01-23T07:16:43.843Z,36.90
2023-01-23T07:18:46.151Z,36.90
2023-01-23T07:20:48.224Z,37.00
2023-01-23T07:22:50.643Z,37.00
2023-01-23T07:24:52.449Z,37.00
2023-01-23T07:26:54.422Z,37.00
2023-01-23T07:28:56.304Z,37.00
2023-01-23T07:30:58.853Z,37.00
2023-01-23T07:33:00.865Z,37.00
2023-01-23T07:35:02.783Z,37.00
2023-01-23T07:37:04.566Z,37.00
2023-01-23T07:39:06.776Z,37.00
2023-01-23T07:41:08.818Z,37.00
2023-01-23T07:43:11.120Z,37.60
2023-01-23T07:45:13.204Z,37.00
2023-01-23T07:47:15.160Z,36.90
2023-01-23T07:49:18.482Z,36.90
2023-01-23T07:51:20.784Z,37.00
2023-01-23T07:55:32.799Z,36.90
2023-01-23T07:57:34.554Z,37.00
2023-01-23T07:59:36.387Z,36.90
2023-01-23T08:01:38.129Z,36.80
2023-01-23T08:03:39.979Z,36.80
2023-01-23T08:05:43.906Z,36.80
2023-01-23T08:07:45.921Z,36.90
2023-01-23T08:09:47.634Z,36.90
2023-01-23T08:11:51.306Z,36.90
2023-01-23T08:13:53.038Z,36.90
2023-01-23T08:15:54.830Z,36.90
2023-01-23T08:17:56.601Z,37.00
2023-01-23T08:19:59.418Z,37.00
2023-01-23T08:22:01.129Z,37.00
2023-01-23T08:24:04.139Z,37.10
2023-01-23T08:26:06.551Z,37.10
2023-01-23T08:28:08.390Z,37.30
2023-01-23T08:30:10.452Z,37.10
2023-01-23T08:32:12.274Z,37.10
2023-01-23T08:34:14.053Z,37.70
2023-01-23T08:36:15.888Z,37.00
2023-01-23T08:38:17.881Z,37.10
2023-01-23T08:40:20.013Z,37.10
2023-01-23T08:42:21.850Z,37.00
2023-01-23T08:44:23.942Z,37.10
2023-01-23T08:46:25.686Z,37.00
2023-01-23T08:48:27.887Z,37.10
2023-01-23T08:50:29.646Z,37.10
2023-01-23T08:52:31.473Z,37.00
2023-01-23T08:54:33.522Z,37.10
2023-01-23T08:56:35.367Z,37.60
2023-01-23T08:58:37.098Z,37.00
2023-01-23T09:00:39.377Z,37.00
2023-01-23T09:02:41.093Z,36.90
2023-01-23T09:04:42.885Z,36.90
2023-01-23T09:06:44.640Z,37.00
2023-01-23T09:08:47.076Z,36.80
2023-01-23T09:10:50.283Z,36.80
2023-01-23T09:12:52.815Z,36.80
2023-01-23T09:14:54.543Z,37.00
2023-01-23T09:16:56.607Z,37.00
2023-01-23T09:18:58.392Z,37.10
2023-01-23T09:21:00.170Z,37.20
2023-01-23T09:23:01.956Z,37.10
2023-01-23T09:25:04.120Z,37.10
2023-01-23T09:27:05.833Z,37.00
2023-01-23T09:29:07.632Z,37.50
2023-01-23T09:31:10.526Z,36.80
2023-01-23T09:33:12.329Z,37.00
2023-01-23T09:35:14.118Z,36.90
2023-01-23T09:37:16.359Z,36.90
2023-01-23T09:39:18.182Z,36.90
2023-01-23T09:41:21.371Z,36.90
2023-01-23T09:43:23.102Z,36.90
2023-01-23T09:45:26.666Z,36.80
2023-01-23T09:47:32.842Z,36.80
2023-01-23T09:49:43.708Z,36.70
2023-01-23T09:51:55.552Z,36.80
2023-01-23T09:54:01.168Z,36.80
2023-01-23T09:56:02.899Z,36.80
2023-01-23T09:58:05.093Z,36.80
2023-01-23T10:00:19.745Z,36.80
2023-01-23T10:02:25.753Z,36.80
2023-01-23T10:04:28.501Z,36.80
2023-01-23T10:06:31.500Z,36.80
2023-01-23T10:08:42.390Z,36.80
2023-01-23T10:10:47.394Z,36.80
2023-01-23T10:13:00.964Z,37.00
2023-01-23T10:15:16.140Z,37.00
2023-01-23T10:17:46.929Z,37.10
2023-01-23T10:19:51.573Z,37.10
2023-01-23T10:22:02.400Z,37.20
2023-01-23T10:24:23.699Z,37.10
2023-01-23T10:26:31.579Z,37.00
2023-01-23T10:28:34.927Z,36.90
2023-01-23T10:30:36.939Z,36.90
2023-01-23T10:32:56.974Z,36.90
2023-01-23T10:35:27.882Z,37.00
2023-01-23T10:37:36.924Z,37.00
2023-01-23T10:39:50.349Z,36.90
2023-01-23T10:42:01.467Z,37.00
2023-01-23T10:44:09.548Z,36.90
2023-01-23T10:46:11.327Z,36.80
2023-01-23T10:48:31.840Z,36.70
2023-01-23T10:50:37.070Z,36.80
2023-01-23T10:52:42.625Z,36.80
2023-01-23T10:54:45.532Z,36.80
2023-01-23T10:56:57.949Z,36.70
2023-01-23T10:59:01.042Z,36.70
2023-01-23T11:01:03.475Z,36.80
2023-01-23T11:03:28.550Z,36.80
2023-01-23T11:05:46.835Z,36.80
2023-01-23T11:07:54.391Z,36.90
2023-01-23T11:10:15.041Z,36.90
2023-01-23T11:12:18.693Z,37.10
2023-01-23T11:14:21.018Z,37.00
2023-01-23T11:16:23.612Z,37.10
2023-01-23T11:18:33.245Z,37.10
2023-01-23T11:20:36.488Z,37.20
2023-01-23T11:22:39.267Z,37.10
2023-01-23T11:24:41.827Z,36.80
2023-01-23T11:26:43.744Z,36.70
2023-01-23T11:28:49.028Z,36.60
2023-01-23T11:31:00.979Z,36.70
2023-01-23T11:33:43.323Z,36.70
2023-01-23T11:36:03.802Z,36.70
2023-01-23T11:38:05.934Z,36.60
2023-01-23T11:40:12.445Z,36.80
2023-01-23T11:42:15.127Z,36.80
2023-01-23T11:44:18.597Z,36.80
2023-01-23T11:46:27.856Z,36.70
2023-01-23T11:48:38.872Z,36.60
2023-01-23T11:50:55.371Z,36.70
2023-01-23T11:53:01.750Z,36.60
2023-01-23T11:55:15.727Z,36.60
2023-01-23T11:57:22.379Z,36.50
2023-01-23T11:59:29.524Z,36.40
2023-01-23T12:01:36.429Z,36.40
2023-01-23T12:03:56.771Z,36.20
2023-01-23T12:08:42.132Z,36.30
2023-01-23T12:10:44.900Z,36.20
2023-01-23T12:12:46.712Z,36.20
2023-01-23T12:14:48.493Z,36.20
2023-01-23T12:17:09.102Z,36.30
2023-01-23T12:19:10.866Z,36.30
2023-01-23T12:21:20.087Z,36.40
2023-01-23T12:23:30.647Z,36.40
2023-01-23T12:25:39.371Z,36.30
2023-01-23T12:27:49.076Z,36.30
2023-01-23T12:29:59.687Z,36.20
2023-01-23T12:32:17.130Z,36.10
2023-01-23T12:34:18.895Z,36.10
2023-01-23T12:36:59.580Z,36.20
2023-01-23T12:39:05.517Z,36.20
2023-01-23T12:41:21.001Z,36.20
2023-01-23T12:43:37.798Z,36.10
2023-01-23T12:45:41.876Z,36.10
2023-01-23T12:48:00.217Z,36.10
2023-01-23T12:50:13.211Z,36.10
2023-01-23T12:52:22.892Z,36.60
2023-01-23T12:54:31.443Z,36.00
2023-01-23T12:56:35.093Z,36.10
2023-01-23T12:58:40.178Z,36.10
2023-01-23T13:00:42.185Z,36.00
2023-01-23T13:03:22.954Z,35.90
2023-01-23T13:05:34.251Z,36.00
2023-01-23T13:07:41.952Z,36.00
2023-01-23T13:09:46.524Z,36.00
2023-01-23T13:12:00.114Z,35.90
2023-01-23T13:14:02.063Z,36.00
2023-01-23T13:16:09.479Z,36.00
2023-01-23T13:18:22.646Z,36.00
2023-01-23T13:20:30.421Z,36.00
2023-01-23T13:22:32.822Z,36.00
2023-01-23T13:24:37.563Z,36.00
2023-01-23T13:26:39.375Z,36.00
2023-01-23T13:28:46.370Z,35.90
2023-01-23T13:30:58.733Z,35.80
2023-01-23T13:33:03.377Z,35.90
2023-01-23T13:35:25.110Z,35.90
2023-01-23T13:37:47.303Z,36.00
2023-01-23T13:40:06.814Z,36.00
2023-01-23T13:42:08.788Z,36.00
2023-01-23T13:44:17.787Z,36.00
2023-01-23T13:46:38.350Z,36.00
2023-01-23T14:21:20.720Z,36.40
2023-01-23T14:23:28.582Z,36.40
2023-01-23T14:25:30.837Z,36.30
2023-01-23T14:27:52.147Z,36.10
2023-01-23T14:30:20.597Z,36.20
2023-01-23T14:32:23.142Z,36.20
2023-01-23T14:34:25.780Z,36.20
2023-01-23T14:36:27.892Z,36.10
2023-01-23T14:38:32.312Z,36.20
2023-01-23T14:40:48.862Z,36.20
2023-01-23T14:43:02.283Z,36.10
2023-01-23T14:45:04.164Z,36.20
2023-01-23T14:47:06.278Z,36.20
2023-01-23T14:49:09.231Z,36.20
2023-01-23T14:51:20.135Z,36.20
2023-01-23T14:53:21.965Z,36.10
2023-01-23T14:55:29.768Z,36.10
2023-01-23T14:57:32.105Z,36.10
2023-01-23T14:59:38.280Z,36.10
2023-01-23T15:01:40.103Z,36.10
2023-01-23T15:03:54.810Z,36.10
2023-01-23T15:05:57.297Z,36.10
2023-01-23T15:08:01.331Z,36.10
2023-01-23T15:10:03.143Z,36.10
2023-01-23T15:12:12.213Z,36.10
2023-01-23T15:14:25.144Z,36.20
2023-01-23T15:16:34.771Z,36.10
2023-01-23T15:18:36.592Z,36.10
2023-01-23T15:20:39.879Z,36.10
2023-01-23T15:22:41.589Z,36.00
2023-01-23T15:24:43.533Z,36.00
2023-01-23T15:27:05.519Z,36.00
2023-01-23T15:29:10.339Z,36.00
2023-01-23T15:31:23.563Z,36.00
2023-01-23T15:33:29.695Z,36.00
2023-01-23T15:35:32.269Z,36.10
2023-01-23T15:37:34.098Z,36.00
2023-01-23T15:39:39.972Z,36.00
2023-01-23T15:41:49.267Z,36.00
2023-01-23T15:43:50.996Z,36.00
2023-01-23T15:45:52.822Z,36.00
2023-01-23T15:47:54.537Z,36.00
2023-01-23T15:49:56.710Z,36.00
2023-01-23T15:51:59.457Z,35.90
2023-01-23T15:54:01.273Z,36.00
2023-01-23T15:56:03.537Z,35.90
2023-01-23T15:58:05.400Z,36.00
2023-01-23T16:00:13.325Z,35.90
2023-01-23T16:02:29.594Z,36.00
2023-01-23T16:04:32.791Z,35.90
2023-01-23T16:06:34.870Z,35.90
2023-01-23T16:08:36.596Z,36.60
2023-01-23T16:10:38.604Z,36.00
2023-01-23T16:12:40.356Z,36.00
2023-01-23T16:14:42.130Z,36.00
2023-01-23T16:16:43.947Z,36.00
2023-01-23T16:18:46.002Z,35.90
2023-01-23T16:20:47.753Z,36.00
2023-01-23T16:22:51.831Z,36.00
2023-01-23T16:24:53.740Z,35.90
2023-01-23T16:26:55.585Z,36.00
2023-01-23T16:29:12.849Z,36.00
2023-01-23T16:31:16.079Z,36.00
2023-01-23T16:33:18.420Z,36.00
2023-01-23T16:35:20.996Z,36.00
2023-01-23T16:37:25.399Z,35.90
2023-01-23T16:39:29.356Z,35.90
2023-01-23T16:41:31.126Z,35.90
2023-01-23T16:43:33.670Z,35.90
2023-01-23T16:45:35.388Z,36.00
2023-01-23T16:47:37.202Z,36.00
2023-01-23T16:49:51.555Z,36.00
2023-01-23T16:52:03.830Z,36.00
2023-01-23T16:54:17.632Z,36.10
2023-01-23T16:56:21.992Z,36.10
2023-01-23T16:58:34.699Z,36.10
2023-01-23T17:00:36.768Z,36.10
2023-01-23T17:02:38.610Z,36.20
2023-01-23T17:04:40.446Z,36.10
2023-01-23T17:06:42.301Z,36.10
2023-01-23T17:08:44.127Z,36.20
2023-01-23T17:10:47.570Z,36.20
2023-01-23T17:12:52.008Z,36.20
2023-01-23T17:14:53.871Z,36.30
2023-01-23T17:17:00.326Z,36.30
2023-01-23T17:19:06.596Z,36.30
2023-01-23T17:21:14.449Z,36.30
2023-01-23T17:23:16.241Z,36.40
2023-01-23T17:25:19.653Z,36.40
2023-01-23T17:27:21.711Z,36.50
2023-01-23T17:29:23.835Z,36.40
2023-01-23T17:31:26.845Z,36.40
2023-01-23T17:33:31.947Z,36.50
2023-01-23T17:35:37.322Z,36.50
2023-01-23T17:37:39.328Z,36.50
2023-01-23T17:39:41.166Z,36.50
2023-01-23T17:41:43.135Z,36.50
2023-01-23T17:43:44.888Z,36.50
2023-01-23T17:45:47.548Z,36.50
2023-01-23T17:47:51.996Z,36.40
2023-01-23T17:49:53.758Z,36.50
2023-01-23T17:51:56.209Z,36.50
2023-01-23T17:53:57.950Z,36.60
2023-01-23T17:55:59.676Z,36.60
2023-01-23T17:58:01.480Z,36.50
2023-01-23T18:00:03.722Z,36.50
2023-01-23T18:02:26.218Z,36.50
2023-01-23T18:04:28.011Z,36.40
2023-01-23T18:06:30.577Z,36.50
2023-01-23T18:08:32.373Z,36.50
2023-01-23T18:10:34.766Z,36.40
2023-01-23T18:12:36.451Z,36.40
2023-01-23T18:14:38.239Z,36.40
2023-01-23T18:16:41.151Z,36.40
2023-01-23T18:18:43.305Z,36.50
2023-01-23T18:20:45.161Z,36.40
2023-01-23T18:22:47.203Z,36.40
2023-01-23T18:24:49.089Z,36.50
2023-01-23T18:27:09.508Z,36.40
2023-01-23T18:29:17.097Z,36.50
2023-01-23T18:31:26.499Z,36.50
2023-01-23T18:33:34.407Z,36.50
2023-01-23T18:35:39.111Z,36.40
2023-01-23T18:37:49.339Z,36.40
2023-01-23T18:39:58.853Z,36.50
2023-01-23T18:42:27.831Z,36.50
2023-01-23T18:44:31.590Z,36.50
2023-01-23T18:46:33.569Z,36.40
2023-01-23T18:48:35.790Z,36.50
2023-01-23T18:50:38.501Z,36.50
2023-01-23T18:52:43.048Z,36.50
2023-01-23T18:54:50.525Z,36.40
2023-01-23T18:56:52.292Z,36.40
2023-01-23T18:59:09.779Z,36.50
2023-01-23T19:01:17.562Z,36.40
2023-01-23T19:03:28.811Z,36.40
2023-01-23T19:05:32.067Z,36.40
2023-01-23T19:07:33.871Z,36.40
2023-01-23T19:09:36.202Z,36.40
2023-01-23T19:11:50.155Z,36.40
2023-01-23T19:13:57.874Z,36.50
2023-01-23T19:15:59.675Z,36.40
2023-01-23T19:18:04.560Z,36.40
2023-01-23T19:20:41.653Z,36.40
2023-01-23T19:22:53.802Z,36.40
2023-01-23T19:24:55.661Z,36.40
2023-01-23T19:26:57.629Z,36.40
2023-01-23T19:29:08.386Z,36.50
2023-01-23T19:31:22.599Z,36.50
2023-01-23T19:33:24.529Z,37.10
2023-01-23T19:35:26.312Z,36.50
2023-01-23T19:37:28.046Z,36.50
2023-01-23T19:39:30.410Z,36.50
2023-01-23T19:41:32.119Z,36.60
2023-01-23T19:43:33.908Z,36.50
2023-01-23T19:45:35.688Z,36.60
2023-01-23T19:47:38.900Z,36.50
2023-01-23T19:49:40.604Z,36.50
2023-01-23T19:51:42.885Z,36.50
2023-01-23T19:53:45.250Z,36.50
2023-01-23T19:55:47.003Z,36.40
2023-01-23T19:57:48.750Z,36.40
2023-01-23T19:59:50.565Z,36.50
2023-01-23T20:01:52.523Z,36.40
2023-01-23T20:03:54.390Z,36.40
2023-01-23T20:05:56.127Z,36.40
2023-01-23T20:07:58.095Z,36.40
2023-01-23T20:09:59.843Z,36.40
2023-01-23T20:12:01.700Z,36.30
2023-01-23T20:14:03.871Z,36.40
2023-01-23T20:16:09.804Z,36.40
2023-01-23T20:18:11.571Z,36.40
2023-01-23T20:20:13.452Z,36.30
2023-01-23T20:22:15.194Z,36.40
2023-01-23T20:24:17.144Z,36.40
2023-01-23T20:26:19.962Z,36.40
2023-01-23T20:28:21.718Z,36.40
2023-01-23T20:30:23.850Z,36.30
2023-01-23T20:32:25.836Z,36.40
2023-01-23T20:34:27.565Z,36.30
2023-01-23T20:36:29.356Z,36.30
2023-01-23T20:38:31.231Z,36.30
2023-01-23T20:40:33.040Z,36.30
2023-01-23T20:42:34.933Z,36.40
2023-01-23T20:44:36.731Z,36.30
2023-01-23T20:46:38.523Z,36.30
2023-01-23T20:48:41.948Z,36.30
2023-01-23T20:50:43.697Z,36.30
2023-01-23T20:52:45.522Z,36.30
2023-01-23T20:54:47.277Z,36.30
2023-01-23T20:56:49.079Z,36.30
2023-01-23T20:58:50.817Z,36.30
2023-01-23T21:00:52.597Z,36.30
2023-01-23T21:02:54.408Z,36.30
2023-01-23T21:04:56.222Z,36.30
2023-01-23T21:06:58.157Z,36.30
2023-01-23T21:08:59.957Z,36.30
2023-01-23T21:11:08.704Z,36.20
2023-01-23T21:13:10.690Z,36.30
2023-01-23T21:15:12.440Z,36.30
2023-01-23T21:17:14.338Z,36.30
2023-01-23T21:19:16.390Z,36.20
2023-01-23T21:21:19.110Z,36.30
2023-01-23T21:23:20.885Z,36.30
2023-01-23T21:25:23.144Z,36.30
2023-01-23T21:27:25.976Z,36.30
2023-01-23T21:29:28.131Z,36.30
2023-01-23T21:31:31.337Z,36.30
2023-01-23T21:33:33.153Z,36.20
2023-01-23T21:35:34.944Z,36.20
2023-01-23T21:37:36.737Z,36.20
2023-01-23T21:39:39.300Z,36.30
2023-01-23T21:41:41.285Z,36.30
2023-01-23T21:43:42.995Z,36.30
2023-01-23T21:45:44.874Z,36.30
2023-01-23T21:47:46.605Z,36.30
2023-01-23T21:49:48.376Z,36.20
2023-01-23T21:51:50.111Z,36.30
2023-01-23T21:53:51.974Z,36.20
2023-01-23T21:55:53.694Z,36.20
2023-01-23T21:57:55.469Z,36.20
2023-01-23T21:59:57.224Z,36.20
2023-01-23T22:01:59.083Z,36.20
2023-01-23T22:04:05.368Z,36.20
2023-01-23T22:06:07.128Z,36.20
2023-01-23T22:08:08.939Z,36.20
2023-01-23T22:10:10.806Z,36.20
2023-01-23T22:12:12.545Z,36.20
2023-01-23T22:14:14.663Z,36.20
2023-01-23T22:16:16.431Z,36.20
2023-01-23T22:18:18.231Z,36.20
2023-01-23T22:20:19.988Z,36.20
2023-01-23T22:22:21.799Z,36.30
2023-01-23T22:24:23.645Z,36.20
2023-01-23T22:26:25.462Z,36.70
2023-01-23T22:28:27.496Z,36.20
2023-01-23T22:30:29.334Z,36.20
2023-01-23T22:32:32.311Z,36.20
2023-01-23T22:34:34.115Z,36.20
2023-01-23T22:36:35.881Z,36.20
2023-01-23T22:38:37.712Z,36.20
2023-01-23T22:40:39.834Z,36.20
2023-01-23T22:42:41.622Z,36.20
2023-01-23T22:44:43.331Z,36.20
2023-01-23T22:46:45.237Z,36.20
2023-01-23T22:48:47.079Z,36.20
2023-01-23T22:50:48.865Z,36.20
2023-01-23T22:52:50.636Z,36.20
2023-01-23T22:54:52.479Z,36.20
2023-01-23T22:56:54.222Z,36.20
2023-01-23T22:58:56.699Z,36.20
2023-01-23T23:00:58.479Z,36.20
2023-01-23T23:03:00.305Z,36.20
2023-01-23T23:05:02.046Z,36.20
2023-01-23T23:07:03.846Z,36.20
2023-01-23T23:09:05.644Z,36.20
2023-01-23T23:11:08.820Z,36.20
2023-01-23T23:13:10.782Z,36.20
2023-01-23T23:15:12.636Z,36.20
2023-01-23T23:17:14.380Z,36.20
2023-01-23T23:19:16.216Z,36.20
2023-01-23T23:21:19.189Z,36.20
2023-01-23T23:23:20.991Z,36.20
2023-01-23T23:25:22.981Z,36.20
2023-01-23T23:27:24.886Z,36.20
2023-01-23T23:29:26.644Z,36.20
2023-01-23T23:31:28.863Z,36.20
2023-01-23T23:33:30.710Z,36.20
2023-01-23T23:35:32.483Z,36.10
2023-01-23T23:37:34.268Z,36.20
2023-01-23T23:39:36.102Z,36.10
2023-01-23T23:41:37.878Z,36.20
2023-01-23T23:43:39.863Z,36.20
2023-01-23T23:45:47.065Z,36.10
2023-01-23T23:47:48.861Z,36.10
2023-01-23T23:49:50.643Z,36.10
2023-01-23T23:51:52.666Z,36.10
2023-01-23T23:53:54.413Z,36.10
2023-01-23T23:55:56.247Z,36.10
2023-01-23T23:57:58.851Z,36.10
